createdAt,value
2018-03-07T00:00:39.808Z,96546.14
2018-03-07T00:03:07.297Z,96544.21
2018-03-07T00:05:34.737Z,96549.70
2018-03-07T00:08:02.154Z,96546.96
2018-03-07T00:10:29.629Z,96552.46
2018-03-07T00:12:57.126Z,96548.36
2018-03-07T00:15:24.571Z,96554.50
2018-03-07T00:17:52.001Z,96563.73
2018-03-07T00:20:19.407Z,96556.61
2018-03-07T00:22:46.879Z,96563.14
2018-03-07T00:25:14.346Z,96564.23
2018-03-07T00:27:41.841Z,96560.83
2018-03-07T00:30:09.270Z,96562.86
2018-03-07T00:32:36.731Z,96569.66
2018-03-07T00:35:04.154Z,96573.56
2018-03-07T00:37:31.576Z,96574.14
2018-03-07T00:39:59.133Z,96572.08
2018-03-07T00:42:26.556Z,96572.66
2018-03-07T00:44:53.956Z,96571.95
2018-03-07T00:47:21.362Z,96572.51
2018-03-07T00:49:48.761Z,96571.92
2018-03-07T00:52:16.184Z,96571.37
2018-03-07T00:54:43.601Z,96572.78
2018-03-07T00:57:11.062Z,96566.84
2018-03-07T00:59:38.487Z,96566.58
2018-03-07T01:02:05.885Z,96573.30
2018-03-07T01:04:33.351Z,96577.31
2018-03-07T01:07:00.781Z,96576.98
2018-03-07T01:09:28.244Z,96573.66
2018-03-07T01:11:55.645Z,96572.09
2018-03-07T01:14:23.090Z,96568.16
2018-03-07T01:16:50.498Z,96577.43
2018-03-07T01:19:17.925Z,96571.92
2018-03-07T01:21:45.385Z,96574.09
2018-03-07T01:24:17.983Z,96566.76
2018-03-07T01:26:46.667Z,96574.03
2018-03-07T01:29:14.111Z,96569.36
2018-03-07T01:31:41.632Z,96565.69
2018-03-07T01:34:09.095Z,96567.23
2018-03-07T01:36:36.560Z,96564.91
2018-03-07T01:39:04.009Z,96570.83
2018-03-07T01:41:31.436Z,96560.04
2018-03-07T01:43:58.854Z,96568.10
2018-03-07T01:46:26.275Z,96565.67
2018-03-07T01:48:53.720Z,96564.19
2018-03-07T01:51:21.164Z,96567.84
2018-03-07T01:53:48.686Z,96563.13
2018-03-07T01:56:16.209Z,96565.41
2018-03-07T01:58:43.657Z,96573.14
2018-03-07T02:01:11.065Z,96567.84
2018-03-07T02:03:52.774Z,96567.38
2018-03-07T02:06:20.241Z,96570.87
2018-03-07T02:08:47.665Z,96562.05
2018-03-07T02:11:15.105Z,96569.58
2018-03-07T02:13:42.625Z,96569.73
2018-03-07T02:16:10.022Z,96570.67
2018-03-07T02:18:37.488Z,96565.96
2018-03-07T02:21:04.898Z,96568.15
2018-03-07T02:23:32.344Z,96570.08
2018-03-07T02:25:59.748Z,96572.53
2018-03-07T02:28:27.180Z,96571.73
2018-03-07T02:30:54.698Z,96579.39
2018-03-07T02:33:22.106Z,96582.25
2018-03-07T02:35:49.536Z,96583.59
2018-03-07T02:38:16.993Z,96577.44
2018-03-07T02:40:45.359Z,96577.58
2018-03-07T02:43:12.766Z,96582.95
2018-03-07T02:45:40.181Z,96586.27
2018-03-07T02:48:07.607Z,96578.97
2018-03-07T02:50:35.016Z,96589.77
2018-03-07T02:53:02.448Z,96586.55
2018-03-07T02:55:29.876Z,96593.59
2018-03-07T02:57:57.286Z,96589.36
2018-03-07T03:00:24.702Z,96594.89
2018-03-07T03:02:52.190Z,96600.48
2018-03-07T03:05:19.818Z,96589.02
2018-03-07T03:07:47.243Z,96595.26
2018-03-07T03:10:14.681Z,96594.37
2018-03-07T03:12:42.127Z,96600.73
2018-03-07T03:15:09.553Z,96598.47
2018-03-07T03:17:36.974Z,96604.09
2018-03-07T03:20:04.411Z,96603.69
2018-03-07T03:22:31.837Z,96607.03
2018-03-07T03:24:59.317Z,96597.80
2018-03-07T03:27:26.726Z,96606.48
2018-03-07T03:29:54.142Z,96612.00
2018-03-07T03:32:21.542Z,96607.36
2018-03-07T03:34:48.954Z,96615.61
2018-03-07T03:37:16.351Z,96613.34
2018-03-07T03:39:43.798Z,96604.58
2018-03-07T03:42:11.238Z,96615.59
2018-03-07T03:44:38.670Z,96611.85
2018-03-07T03:47:06.096Z,96613.18
2018-03-07T03:49:33.494Z,96612.49
2018-03-07T03:52:00.921Z,96611.97
2018-03-07T03:54:28.308Z,96614.61
2018-03-07T03:56:55.766Z,96609.00
2018-03-07T03:59:23.262Z,96600.63
2018-03-07T04:01:50.678Z,96612.64
2018-03-07T04:04:18.082Z,96604.34
2018-03-07T04:06:45.583Z,96612.70
2018-03-07T04:09:12.986Z,96610.73
2018-03-07T04:11:40.411Z,96602.70
2018-03-07T04:14:07.849Z,96611.77
2018-03-07T04:16:35.274Z,96609.80
2018-03-07T04:19:02.674Z,96612.52
2018-03-07T04:21:30.089Z,96617.97
2018-03-07T04:23:57.495Z,96622.24
2018-03-07T04:26:24.920Z,96622.91
2018-03-07T04:28:52.328Z,96620.38
2018-03-07T04:31:19.748Z,96624.35
2018-03-07T04:33:47.155Z,96630.27
2018-03-07T04:36:14.746Z,96630.91
2018-03-07T04:38:42.157Z,96627.46
2018-03-07T04:41:10.021Z,96631.25
2018-03-07T04:43:37.436Z,96645.45
2018-03-07T04:46:04.896Z,96650.76
2018-03-07T04:48:32.296Z,96654.84
2018-03-07T04:50:59.708Z,96650.72
2018-03-07T04:53:27.131Z,96651.13
2018-03-07T04:55:54.575Z,96655.87
2018-03-07T04:58:21.988Z,96652.94
2018-03-07T05:00:49.420Z,96652.73
2018-03-07T05:03:16.896Z,96643.48
2018-03-07T05:05:44.306Z,96643.38
2018-03-07T05:08:11.738Z,96651.05
2018-03-07T05:10:39.152Z,96649.33
2018-03-07T05:13:06.561Z,96665.41
2018-03-07T05:15:34.010Z,96675.84
2018-03-07T05:18:01.422Z,96670.65
2018-03-07T05:20:28.837Z,96665.42
2018-03-07T05:22:56.270Z,96658.77
2018-03-07T05:25:23.679Z,96656.05
2018-03-07T05:27:51.091Z,96672.10
2018-03-07T05:30:18.504Z,96670.75
2018-03-07T05:32:45.947Z,96669.46
2018-03-07T05:35:13.414Z,96681.41
2018-03-07T05:37:40.807Z,96680.13
2018-03-07T05:40:08.209Z,96681.42
2018-03-07T05:42:35.673Z,96680.79
2018-03-07T05:45:03.093Z,96678.66
2018-03-07T05:47:30.686Z,96683.14
2018-03-07T05:49:58.081Z,96682.83
2018-03-07T05:52:26.402Z,96682.94
2018-03-07T05:54:53.806Z,96686.85
2018-03-07T05:57:21.206Z,96679.80
2018-03-07T05:59:48.629Z,96687.12
2018-03-07T06:02:16.032Z,96685.59
2018-03-07T06:04:43.450Z,96682.78
2018-03-07T06:07:10.853Z,96684.27
2018-03-07T06:09:38.278Z,96692.04
2018-03-07T06:12:05.696Z,96695.85
2018-03-07T06:14:33.155Z,96694.63
2018-03-07T06:17:00.610Z,96700.66
2018-03-07T06:19:27.982Z,96706.38
2018-03-07T06:21:55.413Z,96708.23
2018-03-07T06:24:22.896Z,96710.67
2018-03-07T06:26:50.373Z,96715.73
2018-03-07T06:29:17.830Z,96713.18
2018-03-07T06:31:45.251Z,96724.10
2018-03-07T06:34:12.683Z,96724.27
2018-03-07T06:36:40.135Z,96729.64
2018-03-07T06:39:07.604Z,96747.28
2018-03-07T06:41:35.010Z,96748.25
2018-03-07T06:44:02.446Z,96751.39
2018-03-07T06:46:29.923Z,96746.89
2018-03-07T06:48:57.328Z,96748.38
2018-03-07T06:51:24.793Z,96758.88
2018-03-07T06:53:52.241Z,96755.36
2018-03-07T06:56:19.684Z,96762.45
2018-03-07T06:58:47.109Z,96759.19
2018-03-07T07:01:14.524Z,96758.53
2018-03-07T07:03:41.965Z,96767.05
2018-03-07T07:06:09.396Z,96779.49
2018-03-07T07:08:36.811Z,96778.77
2018-03-07T07:11:04.215Z,96781.41
2018-03-07T07:13:31.661Z,96791.84
2018-03-07T07:15:59.115Z,96795.87
2018-03-07T07:18:26.525Z,96804.83
2018-03-07T07:20:53.948Z,96811.00
2018-03-07T07:23:21.356Z,96812.45
2018-03-07T07:25:48.778Z,96810.29
2018-03-07T07:28:16.183Z,96805.08
2018-03-07T07:30:43.609Z,96811.12
2018-03-07T07:33:11.018Z,96813.09
2018-03-07T07:35:38.435Z,96824.01
2018-03-07T07:38:05.861Z,96827.27
2018-03-07T07:40:33.278Z,96825.42
2018-03-07T07:43:00.848Z,96821.63
2018-03-07T07:45:28.277Z,96829.28
2018-03-07T07:47:55.720Z,96837.13
2018-03-07T07:50:23.165Z,96836.38
2018-03-07T07:52:50.581Z,96832.78
2018-03-07T07:55:18.002Z,96845.63
2018-03-07T07:57:45.411Z,96841.22
2018-03-07T08:00:12.870Z,96839.71
2018-03-07T08:02:40.334Z,96828.39
2018-03-07T08:05:07.846Z,96824.52
2018-03-07T08:07:35.277Z,96826.19
2018-03-07T08:10:02.719Z,96823.73
2018-03-07T08:12:30.129Z,96823.67
2018-03-07T08:14:58.287Z,96817.97
2018-03-07T08:17:25.727Z,96826.02
2018-03-07T08:19:53.190Z,96831.92
2018-03-07T08:22:20.629Z,96833.86
2018-03-07T08:24:48.066Z,96840.95
2018-03-07T08:27:15.534Z,96841.30
2018-03-07T08:29:42.986Z,96848.46
2018-03-07T08:32:10.402Z,96845.85
2018-03-07T08:34:37.822Z,96845.42
2018-03-07T08:37:05.239Z,96851.88
2018-03-07T08:39:32.640Z,96846.70
2018-03-07T08:42:00.071Z,96848.86
2018-03-07T08:44:27.477Z,96842.59
2018-03-07T08:46:54.903Z,96846.19
2018-03-07T08:49:22.293Z,96840.19
2018-03-07T08:51:49.734Z,96840.30
2018-03-07T08:54:17.145Z,96832.62
2018-03-07T08:56:44.570Z,96842.34
2018-03-07T08:59:11.974Z,96846.97
2018-03-07T09:01:39.388Z,96841.11
2018-03-07T09:04:06.813Z,96849.39
2018-03-07T09:06:34.325Z,96842.47
2018-03-07T09:09:01.767Z,96856.59
2018-03-07T09:11:29.201Z,96857.17
2018-03-07T09:13:56.605Z,96865.05
2018-03-07T09:16:24.010Z,96868.42
2018-03-07T09:18:51.475Z,96869.48
2018-03-07T09:21:18.917Z,96879.32
2018-03-07T09:23:46.322Z,96882.04
2018-03-07T09:26:13.949Z,96875.37
2018-03-07T09:28:41.361Z,96889.14
2018-03-07T09:31:08.779Z,96884.08
2018-03-07T09:33:36.195Z,96897.59
2018-03-07T09:36:03.652Z,96897.86
2018-03-07T09:38:31.065Z,96898.73
2018-03-07T09:40:58.563Z,96900.95
2018-03-07T09:43:25.977Z,96907.11
2018-03-07T09:45:53.379Z,96905.55
2018-03-07T09:48:20.819Z,96903.57
2018-03-07T09:50:48.233Z,96905.36
2018-03-07T09:53:15.670Z,96910.55
2018-03-07T09:55:43.088Z,96901.14
2018-03-07T09:58:10.513Z,96906.69
2018-03-07T10:00:37.982Z,96910.16
2018-03-07T10:03:05.398Z,96908.58
2018-03-07T10:05:32.815Z,96921.70
2018-03-07T10:08:00.234Z,96918.84
2018-03-07T10:10:27.641Z,96919.26
2018-03-07T10:12:55.182Z,96918.28
2018-03-07T10:15:22.589Z,96924.33
2018-03-07T10:17:49.999Z,96922.13
2018-03-07T10:20:17.441Z,96924.66
2018-03-07T10:22:44.885Z,96924.58
2018-03-07T10:25:12.274Z,96923.92
2018-03-07T10:27:39.720Z,96929.26
2018-03-07T10:30:07.149Z,96930.89
2018-03-07T10:32:34.565Z,96927.52
2018-03-07T10:35:01.975Z,96936.89
2018-03-07T10:37:29.415Z,96928.77
2018-03-07T10:39:56.849Z,96940.48
2018-03-07T10:42:24.287Z,96941.56
2018-03-07T10:44:51.730Z,96939.41
2018-03-07T10:47:19.153Z,96943.35
2018-03-07T10:49:46.598Z,96944.19
2018-03-07T10:52:14.324Z,96945.47
2018-03-07T10:54:41.765Z,96951.06
2018-03-07T10:57:09.193Z,96951.65
2018-03-07T10:59:36.615Z,96945.25
2018-03-07T11:02:04.098Z,96950.75
2018-03-07T11:04:31.526Z,96954.30
2018-03-07T11:06:58.976Z,96959.80
2018-03-07T11:09:26.396Z,96957.39
2018-03-07T11:11:53.824Z,96959.45
2018-03-07T11:14:21.259Z,96959.77
2018-03-07T11:16:48.696Z,96956.66
2018-03-07T11:19:16.173Z,96945.80
2018-03-07T11:21:43.583Z,96948.53
2018-03-07T11:24:11.081Z,96953.73
2018-03-07T11:26:38.486Z,96958.34
2018-03-07T11:29:05.946Z,96961.84
2018-03-07T11:31:33.370Z,96961.92
2018-03-07T11:34:00.899Z,96953.89
2018-03-07T11:36:28.345Z,96964.11
2018-03-07T11:38:55.796Z,96953.14
2018-03-07T11:41:23.298Z,96963.00
2018-03-07T11:43:50.733Z,96956.60
2018-03-07T11:46:18.170Z,96961.24
2018-03-07T11:48:45.581Z,96957.00
2018-03-07T11:51:13.002Z,96954.93
2018-03-07T11:53:40.435Z,96949.29
2018-03-07T11:56:07.869Z,96958.97
2018-03-07T11:58:35.281Z,96954.38
2018-03-07T12:01:02.704Z,96954.78
2018-03-07T12:03:30.187Z,96951.95
2018-03-07T12:05:57.633Z,96944.06
2018-03-07T12:08:25.064Z,96950.34
2018-03-07T12:10:52.480Z,96949.23
2018-03-07T12:13:19.894Z,96955.88
2018-03-07T12:15:47.327Z,96957.96
2018-03-07T12:18:14.741Z,96954.73
2018-03-07T12:20:42.182Z,96954.81
2018-03-07T12:23:09.605Z,96955.36
2018-03-07T12:25:37.018Z,96944.57
2018-03-07T12:28:04.455Z,96947.27
2018-03-07T12:30:31.946Z,96961.83
2018-03-07T12:32:59.378Z,96953.02
2018-03-07T12:35:26.812Z,96953.81
2018-03-07T12:37:54.234Z,96952.23
2018-03-07T12:40:21.661Z,96953.13
2018-03-07T12:42:49.068Z,96954.80
2018-03-07T12:45:16.502Z,96952.86
2018-03-07T12:47:43.924Z,96956.05
2018-03-07T12:50:11.368Z,96952.98
2018-03-07T12:52:38.793Z,96950.25
2018-03-07T12:55:06.238Z,96953.31
2018-03-07T12:57:33.649Z,96958.63
2018-03-07T13:00:01.054Z,96957.62
2018-03-07T13:02:28.508Z,96955.76
2018-03-07T13:04:55.901Z,96955.71
2018-03-07T13:07:23.404Z,96960.94
2018-03-07T13:09:50.815Z,96958.89
2018-03-07T13:12:18.431Z,96956.69
2018-03-07T13:14:45.838Z,96964.36
2018-03-07T13:17:13.277Z,96957.58
2018-03-07T13:19:40.693Z,96959.47
2018-03-07T13:22:08.102Z,96957.50
2018-03-07T13:24:35.502Z,96955.27
2018-03-07T13:27:02.927Z,96951.48
2018-03-07T13:29:30.358Z,96957.99
2018-03-07T13:31:57.798Z,96953.31
2018-03-07T13:34:25.213Z,96956.63
2018-03-07T13:36:52.629Z,96955.45
2018-03-07T13:39:20.086Z,96953.52
2018-03-07T13:41:47.562Z,96954.59
2018-03-07T13:44:15.032Z,96962.99
2018-03-07T13:46:42.451Z,96964.34
2018-03-07T13:49:09.858Z,96962.28
2018-03-07T13:51:37.286Z,96976.37
2018-03-07T13:54:04.811Z,96969.57
2018-03-07T13:56:32.245Z,96958.88
2018-03-07T13:58:59.694Z,96963.09
2018-03-07T14:01:27.132Z,96960.70
2018-03-07T14:03:54.538Z,96962.98
2018-03-07T14:06:22.209Z,96971.58
2018-03-07T14:08:49.637Z,96971.10
2018-03-07T14:11:17.077Z,96966.47
2018-03-07T14:13:44.541Z,96964.62
2018-03-07T14:16:11.969Z,96970.08
2018-03-07T14:18:39.469Z,96972.38
2018-03-07T14:21:06.874Z,96971.92
2018-03-07T14:23:34.287Z,96973.11
2018-03-07T14:26:01.707Z,96972.83
2018-03-07T14:28:29.148Z,96980.69
2018-03-07T14:30:56.554Z,96971.93
2018-03-07T14:33:23.975Z,96974.64
2018-03-07T14:35:51.394Z,96972.20
2018-03-07T14:38:18.831Z,96974.27
2018-03-07T14:40:46.250Z,96970.52
2018-03-07T14:43:13.673Z,96965.64
2018-03-07T14:45:41.093Z,96960.77
2018-03-07T14:48:08.575Z,96960.08
2018-03-07T14:50:36.075Z,96967.58
2018-03-07T14:53:03.494Z,96966.95
2018-03-07T14:55:30.911Z,96960.32
2018-03-07T14:57:58.365Z,96964.05
2018-03-07T15:00:25.914Z,96957.80
2018-03-07T15:02:53.346Z,96961.84
2018-03-07T15:05:20.780Z,96957.81
2018-03-07T15:07:48.238Z,96964.64
2018-03-07T15:10:15.722Z,96968.81
2018-03-07T15:12:43.159Z,96970.98
2018-03-07T15:15:10.587Z,96972.78
2018-03-07T15:17:38.013Z,96973.80
2018-03-07T15:20:05.452Z,96976.92
2018-03-07T15:22:33.473Z,96981.39
2018-03-07T15:25:00.911Z,96988.56
2018-03-07T15:27:28.329Z,96987.31
2018-03-07T15:29:55.743Z,96993.89
2018-03-07T15:32:23.182Z,96999.01
2018-03-07T15:34:50.600Z,97007.44
2018-03-07T15:37:18.016Z,96993.48
2018-03-07T15:39:45.436Z,96999.98
2018-03-07T15:42:12.938Z,96993.92
2018-03-07T15:44:40.362Z,97005.23
2018-03-07T15:47:07.898Z,97012.34
2018-03-07T15:49:35.374Z,97013.19
2018-03-07T15:52:02.793Z,97021.45
2018-03-07T15:54:30.212Z,97027.26
2018-03-07T15:56:57.637Z,97033.08
2018-03-07T15:59:25.058Z,97038.49
2018-03-07T16:01:52.462Z,97042.51
2018-03-07T16:04:19.883Z,97050.44
2018-03-07T16:06:47.290Z,97064.66
2018-03-07T16:09:14.779Z,97075.14
2018-03-07T16:11:42.186Z,97090.36
2018-03-07T16:14:09.589Z,97096.89
2018-03-07T16:16:37.000Z,97100.41
2018-03-07T16:19:04.428Z,97106.82
2018-03-07T16:21:31.840Z,97109.54
2018-03-07T16:23:59.289Z,97109.91
2018-03-07T16:26:26.758Z,97119.52
2018-03-07T16:28:54.162Z,97127.84
2018-03-07T16:31:21.580Z,97124.44
2018-03-07T16:33:49.006Z,97120.79
2018-03-07T16:36:16.580Z,97114.91
2018-03-07T16:38:43.982Z,97121.15
2018-03-07T16:41:11.469Z,97125.12
2018-03-07T16:43:38.909Z,97116.69
2018-03-07T16:46:06.322Z,97122.12
2018-03-07T16:48:33.727Z,97125.97
2018-03-07T16:51:01.164Z,97127.95
2018-03-07T16:53:28.549Z,97130.59
2018-03-07T16:55:56.190Z,97136.23
2018-03-07T16:58:23.597Z,97145.45
2018-03-07T17:00:51.002Z,97140.55
2018-03-07T17:03:18.398Z,97134.47
2018-03-07T17:05:45.815Z,97142.60
2018-03-07T17:08:13.245Z,97143.04
2018-03-07T17:10:40.710Z,97143.26
2018-03-07T17:13:08.121Z,97146.25
2018-03-07T17:15:35.529Z,97156.84
2018-03-07T17:18:03.422Z,97160.02
2018-03-07T17:20:30.821Z,97164.20
2018-03-07T17:22:58.326Z,97164.89
2018-03-07T17:25:25.775Z,97172.63
2018-03-07T17:27:53.184Z,97174.77
2018-03-07T17:30:20.590Z,97171.00
2018-03-07T17:32:48.025Z,97172.95
2018-03-07T17:35:15.497Z,97185.23
2018-03-07T17:37:42.924Z,97189.33
2018-03-07T17:40:10.385Z,97181.58
2018-03-07T17:42:37.811Z,97187.77
2018-03-07T17:45:05.216Z,97191.54
2018-03-07T17:47:32.643Z,97200.44
2018-03-07T17:50:00.054Z,97205.06
2018-03-07T17:52:27.455Z,97203.98
2018-03-07T17:54:54.861Z,97200.70
2018-03-07T17:57:22.271Z,97208.50
2018-03-07T17:59:49.682Z,97205.14
2018-03-07T18:02:17.648Z,97212.23
2018-03-07T18:04:45.218Z,97212.42
2018-03-07T18:07:12.622Z,97221.08
2018-03-07T18:09:40.043Z,97222.42
2018-03-07T18:12:07.506Z,97229.78
2018-03-07T18:14:34.914Z,97237.10
2018-03-07T18:17:02.348Z,97234.79
2018-03-07T18:19:29.760Z,97230.79
2018-03-07T18:21:57.177Z,97237.08
2018-03-07T18:24:24.593Z,97228.23
2018-03-07T18:26:52.037Z,97232.09
2018-03-07T18:29:19.454Z,97239.59
2018-03-07T18:31:46.853Z,97251.25
2018-03-07T18:34:14.258Z,97255.39
2018-03-07T18:36:41.664Z,97259.41
2018-03-07T18:39:09.104Z,97260.16
2018-03-07T18:41:36.530Z,97260.15
2018-03-07T18:44:03.948Z,97264.76
2018-03-07T18:46:31.479Z,97270.72
2018-03-07T18:48:58.890Z,97274.50
2018-03-07T18:51:26.290Z,97276.85
2018-03-07T18:53:53.694Z,97269.50
2018-03-07T18:56:21.093Z,97275.33
2018-03-07T18:58:48.501Z,97277.28
2018-03-07T19:01:15.906Z,97274.31
2018-03-07T19:03:43.305Z,97278.61
2018-03-07T19:06:10.723Z,97285.05
2018-03-07T19:08:38.141Z,97283.29
2018-03-07T19:11:05.541Z,97288.72
2018-03-07T19:13:32.948Z,97302.49
2018-03-07T19:16:00.343Z,97296.84
2018-03-07T19:18:27.745Z,97299.34
2018-03-07T19:20:55.144Z,97305.17
2018-03-07T19:23:22.557Z,97308.81
2018-03-07T19:25:49.962Z,97304.73
2018-03-07T19:28:17.360Z,97311.41
2018-03-07T19:30:44.757Z,97319.69
2018-03-07T19:33:12.200Z,97349.61
2018-03-07T19:35:39.553Z,97364.85
2018-03-07T19:38:06.959Z,97338.63
2018-03-07T19:40:34.381Z,97335.53
2018-03-07T19:43:01.764Z,97321.69
2018-03-07T19:45:29.169Z,97330.34
2018-03-07T19:47:56.563Z,97327.91
2018-03-07T19:50:23.962Z,97319.41
2018-03-07T19:52:51.361Z,97321.42
2018-03-07T19:55:18.766Z,97337.03
2018-03-07T19:57:46.162Z,97338.39
2018-03-07T20:00:13.583Z,97339.59
2018-03-07T20:02:40.969Z,97339.63
2018-03-07T20:05:08.369Z,97340.48
2018-03-07T20:07:35.760Z,97348.13
2018-03-07T20:10:03.178Z,97356.91
2018-03-07T20:12:30.572Z,97359.05
2018-03-07T20:14:57.968Z,97365.39
2018-03-07T20:17:25.369Z,97365.25
2018-03-07T20:19:52.768Z,97371.63
2018-03-07T20:22:20.166Z,97369.66
2018-03-07T20:24:47.569Z,97376.42
2018-03-07T20:27:14.996Z,97376.76
2018-03-07T20:29:42.402Z,97376.58
2018-03-07T20:32:09.809Z,97375.81
2018-03-07T20:34:37.211Z,97382.63
2018-03-07T20:37:04.612Z,97380.95
2018-03-07T20:39:32.021Z,97394.13
2018-03-07T20:41:59.413Z,97393.43
2018-03-07T20:44:26.807Z,97393.16
2018-03-07T20:46:54.215Z,97406.48
2018-03-07T20:49:21.604Z,97410.63
2018-03-07T20:51:49.009Z,97415.18
2018-03-07T20:54:16.408Z,97414.58
2018-03-07T20:56:43.812Z,97418.08
2018-03-07T20:59:11.209Z,97418.84
2018-03-07T21:01:38.621Z,97419.48
2018-03-07T21:04:06.018Z,97424.61
2018-03-07T21:06:33.430Z,97429.38
2018-03-07T21:09:00.821Z,97423.88
2018-03-07T21:11:28.225Z,97430.52
2018-03-07T21:13:55.616Z,97432.41
2018-03-07T21:16:23.017Z,97432.52
2018-03-07T21:18:50.417Z,97447.79
2018-03-07T21:21:17.829Z,97446.48
2018-03-07T21:23:45.230Z,97447.54
2018-03-07T21:26:13.619Z,97451.81
2018-03-07T21:28:41.022Z,97449.67
2018-03-07T21:31:08.438Z,97454.71
2018-03-07T21:33:35.825Z,97457.65
2018-03-07T21:36:03.234Z,97455.34
2018-03-07T21:38:30.641Z,97465.75
2018-03-07T21:40:58.052Z,97466.33
2018-03-07T21:43:25.449Z,97469.95
2018-03-07T21:45:52.846Z,97479.95
2018-03-07T21:48:20.245Z,97482.38
2018-03-07T21:50:47.637Z,97479.02
2018-03-07T21:53:15.077Z,97484.05
2018-03-07T21:55:42.440Z,97489.89
2018-03-07T21:58:09.841Z,97486.47
2018-03-07T22:02:39.973Z,97486.21
2018-03-07T22:05:07.364Z,97494.42
2018-03-07T22:07:34.787Z,97494.70
2018-03-07T22:10:02.184Z,97496.89
2018-03-07T22:12:29.605Z,97503.96
2018-03-07T22:14:57.001Z,97505.54
2018-03-07T22:17:24.409Z,97499.22
2018-03-07T22:19:51.811Z,97499.59
2018-03-07T22:22:19.217Z,97503.61
2018-03-07T22:24:46.921Z,97505.61
2018-03-07T22:27:15.364Z,97507.97
2018-03-07T22:29:42.759Z,97512.01
2018-03-07T22:32:10.177Z,97514.79
2018-03-07T22:34:37.565Z,97515.77
2018-03-07T22:37:04.982Z,97522.48
2018-03-07T22:39:32.388Z,97510.83
2018-03-07T22:41:59.828Z,97523.37
2018-03-07T22:44:27.193Z,97527.11
2018-03-07T22:46:54.594Z,97527.11
2018-03-07T22:49:22.011Z,97528.42
2018-03-07T22:51:49.405Z,97532.59
2018-03-07T22:54:16.818Z,97535.59
2018-03-07T22:56:44.215Z,97541.80
2018-03-07T22:59:11.624Z,97538.72
2018-03-07T23:01:39.018Z,97548.42
2018-03-07T23:04:06.437Z,97544.70
2018-03-07T23:06:33.835Z,97554.91
2018-03-07T23:09:01.239Z,97554.19
2018-03-07T23:11:28.633Z,97557.41
2018-03-07T23:13:56.040Z,97566.17
2018-03-07T23:16:23.434Z,97564.94
2018-03-07T23:18:50.841Z,97566.72
2018-03-07T23:21:18.269Z,97564.84
2018-03-07T23:23:45.666Z,97564.94
2018-03-07T23:26:13.067Z,97563.44
2018-03-07T23:28:40.467Z,97566.69
2018-03-07T23:31:07.865Z,97563.95
2018-03-07T23:33:35.269Z,97571.36
2018-03-07T23:36:02.672Z,97580.34
2018-03-07T23:38:30.072Z,97578.38
2018-03-07T23:40:57.466Z,97581.43
2018-03-07T23:43:24.873Z,97580.50
2018-03-07T23:45:52.274Z,97584.23
2018-03-07T23:48:19.674Z,97591.73
2018-03-07T23:50:47.782Z,97600.09
2018-03-07T23:53:15.247Z,97605.90
2018-03-07T23:55:42.592Z,97602.88
2018-03-07T23:58:09.992Z,97603.54
